Time;durP1;ratioP1;P1;durP2;ratioP2;P2;SDS_P1;SDS_P2;PMS_P1;PMS_P2;Temp;Humidity;BMP_temperature;BMP_pressure;BME280_temperature;BME280_humidity;BME280_pressure;Samples;Min_cycle;Max_cycle;Signal;HPM_P1;HPM_P2
2023/01/25 00:01:53;;;;;;;20.50;15.33;;;5.60;99.90;;;;;;5052378;28;20174;-63
2023/01/25 00:04:19;;;;;;;18.37;15.97;;;5.60;99.90;;;;;;5052547;28;20352;-63
2023/01/25 00:06:45;;;;;;;21.48;16.00;;;5.60;99.90;;;;;;5052522;28;20431;-63
2023/01/25 00:09:12;;;;;;;20.35;14.40;;;5.60;99.90;;;;;;5051238;28;20184;-63
2023/01/25 00:11:37;;;;;;;19.13;14.82;;;5.60;99.90;;;;;;5043683;28;20712;-63
2023/01/25 00:14:04;;;;;;;19.93;16.10;;;5.60;99.90;;;;;;5032242;28;20241;-63
2023/01/25 00:16:30;;;;;;;20.38;15.50;;;5.60;99.90;;;;;;5031385;28;20178;-63
2023/01/25 00:18:55;;;;;;;20.00;16.00;;;5.60;99.90;;;;;;5032442;28;20567;-63
2023/01/25 00:21:23;;;;;;;17.43;15.17;;;5.40;99.90;;;;;;5042126;28;20589;-63
2023/01/25 00:23:49;;;;;;;19.88;16.02;;;5.40;99.90;;;;;;5050718;28;20182;-63
2023/01/25 00:26:15;;;;;;;19.97;16.77;;;5.40;99.90;;;;;;5052567;28;20180;-63
2023/01/25 00:28:41;;;;;;;18.47;14.70;;;5.40;99.90;;;;;;5051990;28;20220;-64
2023/01/25 00:31:10;;;;;;;19.57;15.40;;;5.50;99.90;;;;;;5052519;28;20448;-63
2023/01/25 00:33:49;;;;;;;18.13;15.93;;;5.50;99.90;;;;;;5051566;28;20950;-63
2023/01/25 00:36:37;;;;;;;20.00;15.73;;;5.50;99.90;;;;;;5034891;28;20209;-63
2023/01/25 00:39:04;;;;;;;22.23;16.10;;;5.50;99.90;;;;;;5051980;28;20231;-63
2023/01/25 00:41:30;;;;;;;19.20;15.52;;;5.50;99.90;;;;;;5051988;28;20232;-63
2023/01/25 00:43:56;;;;;;;16.37;14.23;;;5.50;99.90;;;;;;5051709;28;20189;-63
2023/01/25 00:46:22;;;;;;;20.10;15.15;;;5.50;99.90;;;;;;5052253;28;20421;-63
2023/01/25 00:48:51;;;;;;;19.25;15.55;;;5.50;99.90;;;;;;5050505;28;20201;-63
2023/01/25 00:51:17;;;;;;;19.55;15.15;;;5.50;99.90;;;;;;5051135;28;20186;-63
2023/01/25 00:53:42;;;;;;;17.63;14.80;;;5.60;99.90;;;;;;5048413;28;20193;-64
2023/01/25 00:56:08;;;;;;;17.77;14.13;;;5.60;99.90;;;;;;5052134;28;20610;-63
2023/01/25 00:58:34;;;;;;;18.30;15.37;;;5.50;99.90;;;;;;5051981;28;20235;-63
2023/01/25 01:00:59;;;;;;;21.63;15.10;;;5.50;99.90;;;;;;5051591;28;20649;-63
2023/01/25 01:03:25;;;;;;;21.43;15.50;;;5.40;99.90;;;;;;5052250;28;20178;-63
2023/01/25 01:06:02;;;;;;;20.37;14.20;;;5.40;99.90;;;;;;5051500;28;20206;-63
2023/01/25 01:08:28;;;;;;;19.10;15.05;;;5.50;99.90;;;;;;5051017;28;20190;-64
2023/01/25 01:11:01;;;;;;;19.48;15.63;;;5.40;99.90;;;;;;5051585;28;20174;-63
2023/01/25 01:13:28;;;;;;;19.17;15.10;;;5.30;99.90;;;;;;5052153;28;20624;-63
2023/01/25 01:15:54;;;;;;;19.52;14.48;;;5.20;99.90;;;;;;5051786;28;20267;-63
2023/01/25 01:18:20;;;;;;;21.35;15.63;;;5.20;99.90;;;;;;5052154;28;20179;-63
2023/01/25 01:20:53;;;;;;;21.45;14.77;;;5.30;99.90;;;;;;5049362;28;20216;-64
2023/01/25 01:23:19;;;;;;;20.98;14.60;;;5.30;99.90;;;;;;5052031;28;20178;-63
2023/01/25 01:25:45;;;;;;;19.23;14.60;;;5.20;99.90;;;;;;5051082;28;20247;-63
2023/01/25 01:28:11;;;;;;;20.25;15.15;;;5.10;99.90;;;;;;5050725;28;20189;-63
2023/01/25 01:30:37;;;;;;;19.80;14.43;;;5.10;99.90;;;;;;5052043;28;20228;-63
2023/01/25 01:33:03;;;;;;;20.33;14.10;;;5.30;99.90;;;;;;5050372;28;20186;-63
2023/01/25 01:35:30;;;;;;;19.43;15.33;;;5.20;99.90;;;;;;5052009;28;20240;-63
2023/01/25 01:37:55;;;;;;;21.60;14.10;;;5.30;99.90;;;;;;5050073;28;20862;-64
2023/01/25 01:40:21;;;;;;;19.27;14.23;;;5.30;99.90;;;;;;5048205;28;20230;-63
2023/01/25 01:43:01;;;;;;;19.33;15.80;;;5.30;99.90;;;;;;5049665;28;20236;-63
2023/01/25 01:45:50;;;;;;;22.08;15.30;;;5.20;99.90;;;;;;5051738;28;20477;-63
2023/01/25 01:48:27;;;;;;;23.85;16.45;;;5.20;99.90;;;;;;5054937;28;20237;-63
2023/01/25 01:50:57;;;;;;;22.60;17.70;;;5.10;99.90;;;;;;5054840;28;20162;-63
2023/01/25 01:53:25;;;;;;;21.10;15.40;;;4.90;99.90;;;;;;5055301;28;20220;-63
2023/01/25 01:55:57;;;;;;;21.83;15.60;;;4.90;99.90;;;;;;5054715;28;20185;-63
2023/01/25 01:58:23;;;;;;;20.73;15.25;;;4.90;99.90;;;;;;5054448;28;20217;-63
2023/01/25 02:00:49;;;;;;;21.55;16.05;;;4.90;99.90;;;;;;5054850;28;20228;-63
2023/01/25 02:03:15;;;;;;;23.20;16.27;;;5.00;99.90;;;;;;5055619;28;20202;-63
2023/01/25 02:06:02;;;;;;;19.75;14.85;;;5.00;99.90;;;;;;5055031;28;20205;-63
2023/01/25 02:08:32;;;;;;;22.95;16.35;;;5.10;99.90;;;;;;5054974;28;20204;-63
2023/01/25 02:11:00;;;;;;;19.88;14.13;;;5.00;99.90;;;;;;5053394;28;20212;-63
2023/01/25 02:13:26;;;;;;;20.02;14.25;;;5.00;99.90;;;;;;5055081;28;20622;-63
2023/01/25 02:15:55;;;;;;;23.70;16.48;;;5.00;99.90;;;;;;5054305;28;20177;-64
2023/01/25 02:18:21;;;;;;;22.25;15.07;;;5.10;99.90;;;;;;5054071;28;20262;-63
2023/01/25 02:20:52;;;;;;;19.95;15.07;;;5.00;99.90;;;;;;5054683;28;20177;-67
2023/01/25 02:23:18;;;;;;;19.35;13.93;;;5.10;99.90;;;;;;5053808;28;20253;-63
2023/01/25 02:25:45;;;;;;;22.67;15.60;;;5.00;99.90;;;;;;5052288;28;20223;-63
2023/01/25 02:28:45;;;;;;;20.33;14.40;;;5.00;99.90;;;;;;5052931;28;20190;-63
2023/01/25 02:31:10;;;;;;;21.05;14.63;;;5.00;99.90;;;;;;5041454;28;20198;-64
2023/01/25 02:33:36;;;;;;;20.90;14.00;;;5.00;99.90;;;;;;5054247;28;20239;-63
2023/01/25 02:36:07;;;;;;;21.03;13.60;;;4.90;99.90;;;;;;5054020;28;20261;-63
2023/01/25 02:38:41;;;;;;;17.30;12.77;;;5.00;99.90;;;;;;5052348;28;20185;-63
2023/01/25 02:41:20;;;;;;;22.27;15.10;;;5.00;99.90;;;;;;5052320;28;20763;-63
2023/01/25 02:43:46;;;;;;;18.67;13.63;;;5.00;99.90;;;;;;5054483;28;20178;-63
2023/01/25 02:46:28;;;;;;;20.07;15.07;;;5.00;99.90;;;;;;5053619;28;20217;-63
2023/01/25 02:48:54;;;;;;;16.92;12.85;;;5.00;99.90;;;;;;5051950;28;20174;-64
2023/01/25 02:51:28;;;;;;;21.23;14.20;;;5.00;99.90;;;;;;5052868;28;20638;-64
2023/01/25 02:53:55;;;;;;;17.50;12.48;;;5.00;99.90;;;;;;5053639;28;20169;-63
2023/01/25 02:56:21;;;;;;;14.90;12.27;;;5.00;99.90;;;;;;5054249;28;20249;-63
2023/01/25 02:58:47;;;;;;;17.88;13.40;;;5.00;99.90;;;;;;5053249;28;20209;-63
2023/01/25 03:01:13;;;;;;;18.98;12.65;;;5.00;99.90;;;;;;5052235;28;20261;-64
2023/01/25 03:03:40;;;;;;;18.13;13.23;;;5.00;99.90;;;;;;5053710;28;20186;-63
2023/01/25 03:06:06;;;;;;;16.17;12.85;;;4.90;99.90;;;;;;5052088;28;20217;-63
2023/01/25 03:08:32;;;;;;;16.73;12.25;;;4.80;99.90;;;;;;5053629;28;20186;-63
2023/01/25 03:11:00;;;;;;;18.85;13.10;;;4.80;99.90;;;;;;5052953;28;20653;-63
2023/01/25 03:13:26;;;;;;;18.00;12.27;;;4.90;99.90;;;;;;5053971;28;20174;-63
2023/01/25 03:15:58;;;;;;;17.88;12.25;;;4.90;99.90;;;;;;5053181;28;20181;-63
2023/01/25 03:18:24;;;;;;;19.92;11.68;;;4.90;99.90;;;;;;5051706;28;20208;-63
2023/01/25 03:20:50;;;;;;;18.60;12.73;;;4.90;99.90;;;;;;5053399;28;20628;-63
2023/01/25 03:23:16;;;;;;;16.00;11.87;;;4.90;99.90;;;;;;5053667;28;20402;-63
2023/01/25 03:25:41;;;;;;;15.40;12.50;;;4.80;99.90;;;;;;5051302;28;20438;-63
2023/01/25 03:28:07;;;;;;;17.20;12.43;;;4.80;99.90;;;;;;5052171;28;20657;-63
2023/01/25 03:30:34;;;;;;;18.53;12.53;;;4.80;99.90;;;;;;5053360;28;20648;-63
2023/01/25 03:32:59;;;;;;;19.30;13.82;;;4.80;99.90;;;;;;5052838;28;20182;-63
2023/01/25 03:35:25;;;;;;;17.47;12.50;;;4.90;99.90;;;;;;5053240;28;20297;-63
2023/01/25 03:37:51;;;;;;;19.27;14.00;;;4.90;99.90;;;;;;5052054;28;20232;-63
2023/01/25 03:40:17;;;;;;;16.70;12.30;;;4.90;99.90;;;;;;5051838;28;20716;-63
2023/01/25 03:42:42;;;;;;;16.87;12.70;;;5.00;99.90;;;;;;5053268;28;20508;-63
2023/01/25 03:45:08;;;;;;;18.90;13.10;;;5.00;99.90;;;;;;5052317;28;20245;-63
2023/01/25 03:47:34;;;;;;;16.30;12.50;;;5.00;99.90;;;;;;5053152;28;20182;-63
2023/01/25 03:50:00;;;;;;;16.17;11.47;;;5.00;99.90;;;;;;5052583;28;20451;-63
2023/01/25 03:52:26;;;;;;;16.80;11.50;;;5.00;99.90;;;;;;5053118;28;20173;-63
2023/01/25 03:54:52;;;;;;;16.25;12.40;;;4.90;99.90;;;;;;5051417;28;20646;-66
2023/01/25 03:57:18;;;;;;;16.67;12.53;;;4.80;99.90;;;;;;5051829;28;20177;-63
2023/01/25 03:59:44;;;;;;;16.43;12.37;;;4.80;99.90;;;;;;5052701;28;20412;-63
2023/01/25 04:02:11;;;;;;;16.40;12.00;;;4.80;99.90;;;;;;5051140;28;20177;-63
2023/01/25 04:04:37;;;;;;;15.95;10.95;;;4.80;99.90;;;;;;5051642;28;20209;-63
2023/01/25 04:07:03;;;;;;;14.87;9.87;;;4.90;99.90;;;;;;5049314;28;20273;-63
2023/01/25 04:09:28;;;;;;;16.13;11.20;;;4.90;99.90;;;;;;5052649;28;20427;-63
2023/01/25 04:11:54;;;;;;;16.50;11.43;;;4.90;99.90;;;;;;5050300;28;20261;-64
2023/01/25 04:14:20;;;;;;;13.17;9.90;;;4.80;99.90;;;;;;5053007;28;20201;-63
2023/01/25 04:16:45;;;;;;;15.53;10.70;;;4.80;99.90;;;;;;5052816;28;20209;-63
2023/01/25 04:19:11;;;;;;;13.57;9.40;;;4.80;99.90;;;;;;5051812;28;20181;-63
2023/01/25 04:21:37;;;;;;;14.53;9.47;;;4.80;99.90;;;;;;5052795;28;20182;-63
2023/01/25 04:24:02;;;;;;;12.57;8.97;;;4.80;99.90;;;;;;5049929;28;20257;-63
2023/01/25 04:26:28;;;;;;;13.80;10.67;;;4.70;99.90;;;;;;5050328;28;20259;-64
2023/01/25 04:28:54;;;;;;;13.00;9.07;;;4.80;99.90;;;;;;5052007;28;20442;-63
2023/01/25 04:31:22;;;;;;;13.33;9.37;;;4.80;99.90;;;;;;5052762;28;20178;-63
2023/01/25 04:33:48;;;;;;;14.95;9.35;;;4.90;99.90;;;;;;5051424;28;20402;-63
2023/01/25 04:36:13;;;;;;;13.67;10.07;;;4.90;99.90;;;;;;5051638;28;20170;-63
2023/01/25 04:38:41;;;;;;;11.77;8.63;;;4.90;99.90;;;;;;5052132;28;20209;-63
2023/01/25 04:41:06;;;;;;;14.85;11.93;;;4.90;99.90;;;;;;5050266;28;20241;-63
2023/01/25 04:43:32;;;;;;;14.13;10.23;;;4.90;99.90;;;;;;5052426;28;20185;-64
2023/01/25 04:46:01;;;;;;;12.40;9.47;;;4.90;99.90;;;;;;5051549;28;20204;-64
2023/01/25 04:48:27;;;;;;;14.93;9.90;;;4.90;99.90;;;;;;5052405;28;20509;-64
2023/01/25 04:50:52;;;;;;;14.20;10.57;;;4.80;99.90;;;;;;5052140;28;20185;-61
2023/01/25 04:53:18;;;;;;;13.67;8.30;;;4.60;99.90;;;;;;5050236;28;20236;-61
2023/01/25 04:55:46;;;;;;;12.27;8.70;;;4.50;99.90;;;;;;5046865;28;20193;-61
2023/01/25 04:58:12;;;;;;;10.85;9.75;;;4.60;99.90;;;;;;5045637;28;20174;-61
2023/01/25 05:00:37;;;;;;;11.27;6.90;;;4.70;99.90;;;;;;5051269;28;20178;-61
2023/01/25 05:03:03;;;;;;;10.97;7.77;;;4.80;99.90;;;;;;5036608;28;20408;-63
2023/01/25 05:05:29;;;;;;;13.60;11.50;;;4.80;99.90;;;;;;5035963;28;20657;-63
2023/01/25 05:07:54;;;;;;;15.03;10.37;;;4.70;99.90;;;;;;5052098;28;20645;-62
2023/01/25 05:10:21;;;;;;;14.00;10.27;;;4.80;99.90;;;;;;5050960;28;20232;-62
2023/01/25 05:12:47;;;;;;;14.80;9.93;;;4.80;99.90;;;;;;5051704;28;20206;-62
2023/01/25 05:15:13;;;;;;;13.17;9.40;;;4.80;99.90;;;;;;5051545;28;20263;-62
2023/01/25 05:17:39;;;;;;;15.37;10.50;;;4.80;99.90;;;;;;5051266;28;20723;-62
2023/01/25 05:20:05;;;;;;;14.83;9.73;;;4.70;99.90;;;;;;5051213;28;20375;-62
2023/01/25 05:22:30;;;;;;;15.85;10.05;;;4.70;99.90;;;;;;5053655;28;20661;-62
2023/01/25 05:24:57;;;;;;;13.53;9.30;;;4.80;99.90;;;;;;5054400;28;20213;-62
2023/01/25 05:27:24;;;;;;;14.43;10.60;;;4.80;99.90;;;;;;5053032;28;20583;-63
2023/01/25 05:29:50;;;;;;;13.77;9.93;;;4.80;99.90;;;;;;5054520;28;20634;-62
2023/01/25 05:32:18;;;;;;;15.47;9.60;;;4.80;99.90;;;;;;5055180;28;20181;-63
2023/01/25 05:34:44;;;;;;;13.88;12.30;;;4.80;99.90;;;;;;5055061;28;20477;-66
2023/01/25 05:37:13;;;;;;;13.70;11.13;;;4.80;99.90;;;;;;5035121;28;20174;-63
2023/01/25 05:39:42;;;;;;;15.13;8.95;;;4.80;99.90;;;;;;5035938;28;20186;-62
2023/01/25 05:42:14;;;;;;;16.13;12.30;;;4.90;99.90;;;;;;5038356;28;20257;-63
2023/01/25 05:44:40;;;;;;;18.10;9.55;;;4.90;99.90;;;;;;5055107;28;20639;-63
2023/01/25 05:47:06;;;;;;;16.37;9.63;;;4.70;99.90;;;;;;5045844;28;20277;-62
2023/01/25 05:49:32;;;;;;;16.75;8.82;;;4.70;99.90;;;;;;5054289;28;20427;-62
2023/01/25 05:51:57;;;;;;;15.30;10.50;;;4.60;99.90;;;;;;5055393;28;20202;-62
2023/01/25 05:54:23;;;;;;;19.50;10.27;;;4.40;99.90;;;;;;5053396;28;20178;-62
2023/01/25 05:56:49;;;;;;;13.60;9.00;;;4.50;99.90;;;;;;5054955;28;20184;-62
2023/01/25 05:59:16;;;;;;;12.50;8.90;;;4.60;99.90;;;;;;5054699;28;20174;-61
2023/01/25 06:01:42;;;;;;;16.13;11.02;;;4.60;99.90;;;;;;5043195;28;20265;-62
2023/01/25 06:04:15;;;;;;;17.08;13.80;;;4.70;99.90;;;;;;5053146;28;20220;-62
2023/01/25 06:06:41;;;;;;;17.73;9.98;;;4.70;99.90;;;;;;5054002;28;20181;-62
2023/01/25 06:09:09;;;;;;;15.93;11.07;;;4.70;99.90;;;;;;5054748;28;20170;-62
2023/01/25 06:11:34;;;;;;;14.80;12.90;;;4.80;99.90;;;;;;5052860;28;20312;-63
2023/01/25 06:14:00;;;;;;;14.07;10.47;;;4.80;99.90;;;;;;5036076;28;20269;-62
2023/01/25 06:16:26;;;;;;;14.95;10.30;;;4.80;99.90;;;;;;5053349;28;20204;-62
2023/01/25 06:18:52;;;;;;;13.50;10.37;;;4.70;99.90;;;;;;5052842;28;20178;-62
2023/01/25 06:21:18;;;;;;;17.07;12.53;;;4.70;99.90;;;;;;5052948;28;20181;-63
2023/01/25 06:23:43;;;;;;;15.00;10.57;;;4.60;99.90;;;;;;5048894;28;20186;-63
2023/01/25 06:26:13;;;;;;;16.70;12.50;;;4.70;99.90;;;;;;5052591;28;20296;-62
2023/01/25 06:28:39;;;;;;;18.38;11.70;;;4.70;99.90;;;;;;5051891;28;20189;-63
2023/01/25 06:31:07;;;;;;;14.30;11.05;;;4.80;99.90;;;;;;5050452;28;20174;-65
2023/01/25 06:33:34;;;;;;;20.50;12.65;;;4.80;99.90;;;;;;5049202;28;20189;-62
2023/01/25 06:36:20;;;;;;;15.70;11.15;;;4.90;99.90;;;;;;5045729;28;20327;-62
2023/01/25 06:38:50;;;;;;;14.43;10.07;;;5.00;99.90;;;;;;5052834;28;20550;-62
2023/01/25 06:41:17;;;;;;;15.35;11.68;;;4.90;99.90;;;;;;5048256;28;20257;-61
2023/01/25 06:43:43;;;;;;;16.02;12.43;;;4.90;99.90;;;;;;5049152;28;20244;-62
2023/01/25 06:46:12;;;;;;;14.97;10.13;;;4.90;99.90;;;;;;5052810;28;20201;-62
2023/01/25 06:48:39;;;;;;;18.55;11.68;;;4.90;99.90;;;;;;5052251;28;20177;-62
2023/01/25 06:51:09;;;;;;;14.20;9.75;;;4.90;99.90;;;;;;5038421;28;20666;-66
2023/01/25 06:53:38;;;;;;;17.52;11.43;;;4.90;99.90;;;;;;5050047;28;20273;-66
2023/01/25 06:56:10;;;;;;;14.15;10.85;;;4.90;99.90;;;;;;5053299;28;20214;-64
2023/01/25 06:58:36;;;;;;;17.08;11.73;;;4.90;99.90;;;;;;5051863;28;20680;-65
2023/01/25 07:01:14;;;;;;;18.07;11.83;;;4.90;99.90;;;;;;5049913;28;20189;-64
2023/01/25 07:03:40;;;;;;;14.80;11.55;;;4.50;99.90;;;;;;5049971;28;20440;-63
2023/01/25 07:06:08;;;;;;;15.70;11.55;;;4.20;99.90;;;;;;5050993;28;20622;-66
2023/01/25 07:08:35;;;;;;;13.90;11.93;;;4.20;99.90;;;;;;5053783;28;20529;-65
2023/01/25 07:11:03;;;;;;;13.80;11.75;;;4.90;99.90;;;;;;5053968;28;20189;-68
2023/01/25 07:13:30;;;;;;;17.27;13.30;;;5.90;99.90;;;;;;5053504;28;20173;-66
2023/01/25 07:15:58;;;;;;;16.40;12.95;;;6.90;99.90;;;;;;5052611;28;20554;-66
2023/01/25 07:18:26;;;;;;;17.00;10.67;;;7.70;99.90;;;;;;5051529;28;20855;-66
2023/01/25 07:20:52;;;;;;;13.27;9.83;;;8.40;99.90;;;;;;5052325;28;20432;-66
2023/01/25 07:23:18;;;;;;;17.20;12.83;;;9.10;99.90;;;;;;5052841;28;20442;-64
2023/01/25 07:25:46;;;;;;;17.13;12.47;;;9.70;99.90;;;;;;5064352;28;20471;-64
2023/01/25 07:28:12;;;;;;;16.53;12.27;;;9.80;99.80;;;;;;5054042;28;20435;-64
2023/01/25 07:30:39;;;;;;;18.57;12.97;;;9.50;95.90;;;;;;5057607;28;20416;-64
2023/01/25 07:33:05;;;;;;;16.07;13.13;;;9.10;93.90;;;;;;5053374;28;20424;-64
2023/01/25 07:35:31;;;;;;;16.67;11.60;;;8.80;93.80;;;;;;5053262;28;20426;-64
2023/01/25 07:37:57;;;;;;;15.07;10.67;;;8.40;94.10;;;;;;5053425;28;20526;-64
2023/01/25 07:40:25;;;;;;;15.30;11.57;;;8.10;94.60;;;;;;5052441;28;20884;-64
2023/01/25 07:42:51;;;;;;;17.57;12.20;;;7.80;95.30;;;;;;5052206;28;20585;-64
2023/01/25 07:45:17;;;;;;;20.90;12.90;;;7.60;96.40;;;;;;5051822;28;20552;-64
2023/01/25 07:47:43;;;;;;;20.27;12.43;;;7.20;97.30;;;;;;5052932;28;20414;-64
2023/01/25 07:50:10;;;;;;;17.20;12.03;;;6.90;98.80;;;;;;5059243;28;20420;-64
2023/01/25 07:52:36;;;;;;;20.25;11.90;;;6.70;99.90;;;;;;5067701;28;20191;-64
2023/01/25 07:55:02;;;;;;;19.93;13.17;;;6.60;99.90;;;;;;5049025;28;20186;-64
2023/01/25 07:57:27;;;;;;;20.97;13.07;;;6.40;99.90;;;;;;5051056;28;20613;-64
2023/01/25 07:59:53;;;;;;;18.17;13.32;;;6.20;99.90;;;;;;5051361;28;20406;-64
2023/01/25 08:02:19;;;;;;;17.50;12.30;;;6.10;99.90;;;;;;5052051;28;20630;-64
2023/01/25 08:04:45;;;;;;;19.63;13.20;;;6.00;99.90;;;;;;5052171;28;20256;-64
2023/01/25 08:07:12;;;;;;;16.77;12.77;;;5.90;99.90;;;;;;5051748;28;20170;-69
2023/01/25 08:09:38;;;;;;;21.08;13.88;;;5.90;99.90;;;;;;5051294;28;20439;-64
2023/01/25 08:12:10;;;;;;;20.13;14.18;;;5.80;99.90;;;;;;5052450;28;20178;-63
2023/01/25 08:14:37;;;;;;;20.98;13.50;;;5.70;99.90;;;;;;5050880;28;20241;-63
2023/01/25 08:17:03;;;;;;;21.38;13.68;;;5.60;99.90;;;;;;5052953;28;20178;-64
2023/01/25 08:19:28;;;;;;;19.63;12.33;;;5.50;99.90;;;;;;5049982;28;20192;-64
2023/01/25 08:21:54;;;;;;;19.20;12.73;;;5.40;99.90;;;;;;5051963;28;20261;-64
2023/01/25 08:24:20;;;;;;;18.00;12.60;;;5.40;99.90;;;;;;5050694;28;20217;-64
2023/01/25 08:26:45;;;;;;;18.03;11.43;;;5.40;99.90;;;;;;5052516;28;20205;-64
2023/01/25 08:29:11;;;;;;;18.23;13.07;;;5.30;99.90;;;;;;5051613;28;20282;-64
2023/01/25 08:31:40;;;;;;;17.42;11.18;;;5.30;99.90;;;;;;5050280;28;20651;-64
2023/01/25 08:34:06;;;;;;;17.55;12.95;;;5.40;99.90;;;;;;5052498;28;20180;-63
2023/01/25 08:36:32;;;;;;;15.32;11.35;;;5.40;99.90;;;;;;5051953;28;20179;-63
2023/01/25 08:39:04;;;;;;;16.38;13.45;;;5.30;99.90;;;;;;5051331;28;20178;-63
2023/01/25 08:41:32;;;;;;;14.75;11.52;;;5.30;99.90;;;;;;5051265;28;20259;-63
2023/01/25 08:43:58;;;;;;;19.13;12.15;;;5.40;99.90;;;;;;5052073;28;20567;-63
2023/01/25 08:46:26;;;;;;;17.50;12.45;;;5.30;99.90;;;;;;5049614;28;20220;-63
2023/01/25 08:48:54;;;;;;;14.70;11.50;;;5.30;99.90;;;;;;5052362;28;20251;-63
2023/01/25 08:51:20;;;;;;;18.88;12.38;;;5.30;99.90;;;;;;5051869;28;20169;-63
2023/01/25 08:53:46;;;;;;;19.77;12.63;;;5.30;99.90;;;;;;5052317;28;20614;-63
2023/01/25 08:56:14;;;;;;;18.47;12.77;;;5.30;99.90;;;;;;5053224;28;20184;-63
2023/01/25 08:58:46;;;;;;;15.38;11.52;;;5.20;99.90;;;;;;5056008;28;20504;-64
2023/01/25 09:01:14;;;;;;;17.77;12.00;;;5.20;99.90;;;;;;5055584;28;20257;-64
2023/01/25 09:03:43;;;;;;;18.40;12.98;;;5.20;99.90;;;;;;5056047;28;20176;-63
2023/01/25 09:06:10;;;;;;;17.30;11.93;;;5.20;99.90;;;;;;5055953;28;20197;-63
2023/01/25 09:08:39;;;;;;;17.70;11.80;;;5.20;99.90;;;;;;5056001;28;20182;-63
2023/01/25 09:11:08;;;;;;;19.83;12.52;;;5.20;99.90;;;;;;5056157;28;20316;-63
2023/01/25 09:13:34;;;;;;;18.25;12.35;;;5.30;99.90;;;;;;5055738;28;20170;-63
2023/01/25 09:16:08;;;;;;;19.50;12.75;;;5.10;99.90;;;;;;5054231;28;20634;-63
2023/01/25 09:18:40;;;;;;;16.10;10.98;;;5.10;99.90;;;;;;5061380;28;20196;-64
2023/01/25 09:21:12;;;;;;;19.20;12.27;;;5.10;99.90;;;;;;5076089;28;20347;-63
2023/01/25 09:23:38;;;;;;;21.02;14.02;;;5.10;99.90;;;;;;5075935;28;20170;-63
2023/01/25 09:26:04;;;;;;;22.42;15.18;;;5.00;99.90;;;;;;5075557;28;20540;-63
2023/01/25 09:28:31;;;;;;;21.42;14.77;;;5.00;99.90;;;;;;5075166;28;20177;-64
2023/01/25 09:31:03;;;;;;;20.27;13.77;;;5.00;99.90;;;;;;5075716;28;20183;-63
2023/01/25 09:33:34;;;;;;;20.05;14.05;;;5.00;99.90;;;;;;5067521;28;20297;-63
2023/01/25 09:36:01;;;;;;;19.25;13.43;;;5.00;99.90;;;;;;5055889;28;20173;-63
2023/01/25 09:38:27;;;;;;;18.17;12.50;;;5.00;99.90;;;;;;5052891;28;20265;-64
2023/01/25 09:41:02;;;;;;;25.17;15.85;;;5.00;99.90;;;;;;5055532;28;20275;-63
2023/01/25 09:43:39;;;;;;;26.20;14.55;;;5.00;99.90;;;;;;5053911;28;20571;-64
2023/01/25 09:46:43;;;;;;;17.95;13.40;;;5.10;99.90;;;;;;5055462;28;20505;-65
2023/01/25 09:49:29;;;;;;;24.13;13.85;;;5.10;99.90;;;;;;5055570;28;20170;-64
2023/01/25 09:52:32;;;;;;;18.70;12.10;;;5.20;99.90;;;;;;5055026;28;20174;-64
2023/01/25 09:54:58;;;;;;;20.63;12.60;;;5.10;99.90;;;;;;5055564;28;20166;-63
2023/01/25 09:57:36;;;;;;;20.43;11.60;;;5.20;99.90;;;;;;5054545;28;20177;-64
2023/01/25 10:00:14;;;;;;;18.98;13.82;;;5.10;99.90;;;;;;5054942;28;20626;-63
2023/01/25 10:02:53;;;;;;;21.27;13.40;;;5.20;99.90;;;;;;5055402;28;20288;-64
2023/01/25 10:05:24;;;;;;;21.35;14.15;;;5.10;99.90;;;;;;5054215;28;20193;-63
2023/01/25 10:08:02;;;;;;;18.38;12.38;;;5.20;99.90;;;;;;5054606;28;20182;-63
2023/01/25 10:10:42;;;;;;;21.52;12.88;;;5.20;99.90;;;;;;5050026;28;20193;-64
2023/01/25 10:13:16;;;;;;;21.10;13.68;;;5.20;99.90;;;;;;5054800;28;20185;-64
2023/01/25 10:15:52;;;;;;;21.73;14.18;;;5.20;99.90;;;;;;5054999;28;20630;-64
2023/01/25 10:18:26;;;;;;;19.33;13.60;;;5.20;99.90;;;;;;5054324;28;20255;-64
2023/01/25 10:21:00;;;;;;;24.55;15.02;;;5.20;99.90;;;;;;5054940;28;20624;-63
2023/01/25 10:23:41;;;;;;;20.63;13.02;;;5.20;99.90;;;;;;5050347;28;20661;-64
2023/01/25 10:26:25;;;;;;;20.35;12.85;;;5.20;99.90;;;;;;5052285;28;20724;-63
2023/01/25 10:29:18;;;;;;;17.90;11.80;;;5.20;99.90;;;;;;5054843;28;20177;-63
2023/01/25 10:31:58;;;;;;;20.00;12.27;;;5.20;99.90;;;;;;5053619;28;20560;-64
2023/01/25 10:34:35;;;;;;;15.45;10.93;;;5.20;99.90;;;;;;5052837;28;20621;-64
2023/01/25 10:37:10;;;;;;;19.30;13.18;;;5.20;99.90;;;;;;5054871;28;20187;-63
2023/01/25 10:39:41;;;;;;;19.30;11.80;;;5.20;99.90;;;;;;5054249;28;20377;-63
2023/01/25 10:42:12;;;;;;;18.45;12.45;;;5.20;99.90;;;;;;5054128;28;20293;-63
2023/01/25 10:44:38;;;;;;;15.45;11.38;;;5.10;99.90;;;;;;5053811;28;20208;-63
2023/01/25 10:47:10;;;;;;;15.10;10.30;;;5.10;99.90;;;;;;5054489;28;20182;-63
2023/01/25 10:49:47;;;;;;;18.83;10.75;;;5.10;99.90;;;;;;5051296;28;20190;-64
2023/01/25 10:52:24;;;;;;;17.50;10.90;;;5.10;99.90;;;;;;5052006;28;20177;-64
2023/01/25 10:55:14;;;;;;;18.65;11.65;;;5.10;99.90;;;;;;5053114;28;20181;-64
2023/01/25 10:57:47;;;;;;;16.60;10.02;;;5.10;99.90;;;;;;5053707;28;20223;-63
2023/01/25 11:00:27;;;;;;;16.67;10.90;;;5.20;99.90;;;;;;5053946;28;20169;-63
2023/01/25 11:02:53;;;;;;;15.00;9.35;;;5.20;99.90;;;;;;5054238;28;20188;-63
2023/01/25 11:05:22;;;;;;;14.35;9.65;;;5.30;99.90;;;;;;5053427;28;20247;-64
2023/01/25 11:07:48;;;;;;;15.20;10.40;;;5.20;99.90;;;;;;5053922;28;20223;-63
2023/01/25 11:10:41;;;;;;;14.43;10.13;;;5.20;99.90;;;;;;5053966;28;20182;-63
2023/01/25 11:13:15;;;;;;;18.27;11.30;;;5.20;99.90;;;;;;5053083;28;20544;-63
2023/01/25 11:15:44;;;;;;;14.95;10.18;;;5.20;99.90;;;;;;5053225;28;20209;-63
2023/01/25 11:18:36;;;;;;;18.27;10.98;;;5.10;99.90;;;;;;5054080;28;20205;-63
2023/01/25 11:21:17;;;;;;;15.30;12.68;;;5.10;99.90;;;;;;5047428;28;20186;-63
2023/01/25 11:24:19;;;;;;;13.90;10.02;;;5.10;99.90;;;;;;5053119;28;20189;-63
2023/01/25 11:26:45;;;;;;;17.17;9.90;;;5.10;99.90;;;;;;5013045;28;20202;-63
2023/01/25 11:29:15;;;;;;;17.02;10.10;;;5.20;99.90;;;;;;5048931;28;20196;-63
2023/01/25 11:31:52;;;;;;;15.18;9.75;;;5.20;99.90;;;;;;5052645;28;20174;-64
2023/01/25 11:34:23;;;;;;;15.68;9.60;;;5.20;99.90;;;;;;5053507;28;20159;-63
2023/01/25 11:37:17;;;;;;;17.13;11.93;;;5.20;99.90;;;;;;5053287;28;20158;-63
2023/01/25 11:39:43;;;;;;;15.82;10.90;;;5.20;99.90;;;;;;5052608;28;20162;-63
2023/01/25 11:42:31;;;;;;;16.48;10.38;;;5.20;99.90;;;;;;5110241;27;20527;-63
2023/01/25 11:45:33;;;;;;;26.42;11.40;;;5.30;99.90;;;;;;5082447;28;20181;-63
2023/01/25 11:48:49;;;;;;;14.70;9.95;;;5.30;99.90;;;;;;5069549;28;20525;-64
2023/01/25 11:51:24;;;;;;;14.30;9.85;;;5.30;99.90;;;;;;5034854;28;20589;-63
2023/01/25 11:54:08;;;;;;;15.65;9.70;;;5.30;99.90;;;;;;5080707;28;20184;-64
2023/01/25 11:56:48;;;;;;;18.25;11.82;;;5.20;99.90;;;;;;5088726;28;20164;-63
2023/01/25 11:59:44;;;;;;;17.33;10.52;;;5.10;99.90;;;;;;5089545;28;20527;-63
2023/01/25 12:02:18;;;;;;;18.58;11.60;;;5.20;99.90;;;;;;5089844;28;20543;-64
2023/01/25 12:05:06;;;;;;;15.38;10.55;;;5.20;99.90;;;;;;5089349;28;20521;-64
2023/01/25 12:07:31;;;;;;;18.48;10.75;;;5.20;99.90;;;;;;5089051;28;20244;-64
2023/01/25 12:10:03;;;;;;;17.97;11.70;;;5.30;99.90;;;;;;5089446;28;20267;-63
2023/01/25 12:12:35;;;;;;;20.55;12.18;;;5.20;99.90;;;;;;5088968;28;20169;-63
2023/01/25 12:15:18;;;;;;;21.08;12.77;;;5.10;99.90;;;;;;5085164;28;20230;-64
2023/01/25 12:18:01;;;;;;;19.35;11.77;;;5.10;99.90;;;;;;5080416;28;20177;-63
2023/01/25 12:20:36;;;;;;;21.42;11.65;;;5.20;99.90;;;;;;5069007;28;20204;-64
2023/01/25 12:23:13;;;;;;;21.65;12.55;;;5.20;99.90;;;;;;5068866;28;20518;-63
2023/01/25 12:26:16;;;;;;;20.77;12.10;;;5.20;99.90;;;;;;5068527;28;20189;-64
2023/01/25 12:28:48;;;;;;;20.15;11.90;;;5.10;99.90;;;;;;5068688;28;20188;-66
2023/01/25 12:31:53;;;;;;;16.85;10.82;;;4.90;99.90;;;;;;5068558;28;20227;-63
2023/01/25 12:34:25;;;;;;;18.42;11.85;;;4.90;99.90;;;;;;5033243;28;20545;-64
2023/01/25 12:36:51;;;;;;;16.17;11.85;;;4.90;99.90;;;;;;5068642;28;20565;-64
2023/01/25 12:39:26;;;;;;;18.40;11.97;;;4.90;99.90;;;;;;5051057;28;20256;-64
2023/01/25 12:42:04;;;;;;;18.95;11.55;;;4.90;99.90;;;;;;5051917;28;20229;-64
2023/01/25 12:44:34;;;;;;;16.73;11.23;;;4.90;99.90;;;;;;5047769;28;20170;-65
2023/01/25 12:47:09;;;;;;;16.08;10.75;;;4.80;99.90;;;;;;5048904;28;20182;-64
2023/01/25 12:49:47;;;;;;;20.27;10.95;;;4.90;99.90;;;;;;5048154;28;20177;-64
2023/01/25 12:52:36;;;;;;;16.77;10.23;;;4.90;99.90;;;;;;5043180;28;20167;-64
2023/01/25 12:55:04;;;;;;;17.23;11.50;;;5.00;99.90;;;;;;5035099;28;20170;-64